Timeline UpdatesTrip UpdatesNews PostsPvt PostsTravel TipsAdmin PostsConv PostsFollowed PostsChat RequestsBlog PostsPNR Posts

Disclaimer
Search
 
 
Thu Apr 17, 2014 09:59:17 ISTHomeTrainsΣChainsAtlasPNRForumGalleryNewsFAQTripsMembersLoginFeedback
No Recent News for this Train
Other Trains in the News **new
Latest...
Short Origination from Manikpur from 15/4/14-19/5/14
Mon Feb 24, 2014 (12:15PM)
⇐ Return Journey: Train# 51189

51190/Allahabad Itarsi Passenger (UnReserved)

Apr 17 departure has been CANCELLED from ALD/Allahabad Junction to MKP/Manikpur Junction
Sep 11 2013 (1:45PM)
Change Departure Station:
Change Arrival Station:
Post a Train Travel TipPost a Train Travel Tip **new
Post a Comment/Question/Picture/VideoPost a Comment/Question/Picture/Video
Pantry/Catering
✕ NO Pantry Car
✕ NO Catering
RSA - Rake Sharing
Rake/Coach Composition
Loco
WDM 2A ET/KATNI Shed
News    PNR    Forum    Time-Table    Availability    Fare Chart    Map    Arr/Dep History    Trips    Gallery    ΣChains    X/O    Timeline    
Travel Time: 9h 10m    23 halts    Distance: 245 km    Avg Speed: 26 km/hr
Type: Passenger
Zone: CR/Central
Departs @ 06:20 (Avg 59m late)
Platform# 1
SMTWTFS
Jabalpur Junction/JBP 
Arrives @ 15:30 (Avg 25m late)
Platform# ???
SMTWTFS
Itarsi Junction/ET 

23 halts. 25 intermediate Stations between Jabalpur Junction and Itarsi Junction

Show ALL intermediate Stations  Show Old Time-Table

#CodeStation NameX/OArrivesAvgDepartsAvgHaltPFDay#KmSpeedElevZoneAddress
1ALDAllahabad Junction (10)  -19:00+1391-366.219100mNCRAllahabad 211003, Uttar Pradesh
2NYNNaini Junction (4)  19:23+2619:25+272m31-359.19098mNCRAllahabad, Uttar Pradesh
3LKJNLink Junction CabinXO  19:28+2919:30+302m--1-354.63794mNCRAllahabad, Uttar Pradesh
4IDGJIradatganj (3)X  19:38+3019:40+302m--1-349.75199mNCRAllahabad, Uttar Pradesh
5JSRJasra (2)XO  19:47+3119:49+332m--1-343.75097mNCRJasra, Uttar Pradesh
6MFXMadaraha  19:56+3419:58+352m--1-337.954103mNCRNational Highway 76, Uttar Pradesh
7LOGLohgara (2)XO  20:05+3620:07+382m--1-331.660112mNCRLohgara, Uttar Pradesh
8SRJShankargarh (3)XO  20:17+3820:19+432m--1-321.758132mNCRShankargarh, Uttar Pradesh
9MJHRMajhiariX  20:29+4320:31+472m--1-312.116145mNCRNational Highway 76, Uttar Pradesh
10BRGBargarhO  20:58+3721:00+392m--1-304.920166mNCRBargarh, Uttar Pradesh
11KTDDKataiya DandiXO  21:17+3521:19+412m--1-299.48168mNCRKataiya, Uttar Pradesh
12DBRDabhaura (2)X  22:33+1122:35+142m--1-289.231201mNCRDabhaura, Uttar Pradesh
13PNHIPanhaiX  22:55+1922:57+242m--1-278.832214mNCRManikpur, Uttar Pradesh
14MKPManikpur Junction (4)  23:20+1823:30+1710m--1-266.743250mNCRManikpur, Uttar Pradesh
15MKDMarkundiO  23:52+2423:53+291m--1-250.847270mWCRState Highway 11, Madhya Pradesh
16TKYRTikaria (2)  00:03+3000:04+331m--2-242.956268mWCRMDR 11, Madhya Pradesh
17MJGMajhagawanXO  00:18+3300:19+341m--2-229.838343mWCRMajhgawa, Madhya Pradesh
18CTHRChitahra  00:28+3300:29+351m--2-224.056367mWCRMDR 11, Madhya Pradesh
19KTHAKhutahaX  00:37+3700:38+371m--2-216.545332mWCRMDR 11, Madhya Pradesh
20JTWJaitwar (2)X  00:48+3600:49+381m--2-209.140321mWCRJaitwar, Madhya Pradesh
21SAGMSagma (1)X  01:10+3301:11+351m12-195.220337mWCRSatna, Madhya Pradesh
22STASatna Junction (3)X  01:30+2701:40+3010m12-189.077322mWCRSatna, Madhya Pradesh
23LGCELagargawan (2)X  01:49+3601:50+371m--2-177.482319mWCRLagargawan, Madhya Pradesh
24UHRUnchhera (2)X  01:57+3801:58+411m--2-167.878331mWCRUnchhera, Madhya Pradesh
25MYRMaihar (3)X  02:09+4102:10+431m22-153.650353mWCRMaihar Railway Station, Madhya Pradesh
26BUUBhadanpur (2)  02:26+4302:27+451m--2-140.263362mWCRNational Highway 7, Madhya Pradesh
27UDRAmdara (2)X  02:39+4402:40+461m--2-127.553376mWCRNational Highway 34, Madhya Pradesh
28PKRDPakara Road (2)X  02:51+4402:52+471m--2-117.849381mWCRPakara, Madhya Pradesh
29JKEJukehi (3)X  03:04+4503:05+531m--2-108.056402mWCRJukehi, Madhya Pradesh
30PTWAPatwara (2)XO  03:14+5203:15+591m--2-99.714398mWCRNational Highway 34 Distric Katni Madhya Pradesh, Madhya Pradesh
31KTEKatni Junction (6)O  03:55+3604:05+4010m--2-90.634387mWCRKatni, Madhya Pradesh
32MDRRMadhavnagar Road (2)  04:14+4504:16+452m--2-85.560398mWCRMadhavnagar, Madhya Pradesh
33NWRNiwar (2)  04:24+4504:25+471m--2-77.558412mWCRPipraundh, Madhya Pradesh
34SNRRSansarpur (2)  04:33+4404:35+442m--2-69.752436mWCRNational Highway 7, Madhya Pradesh
35SBDSleemanabad Road (2)X  04:43+4004:44+421m--2-62.857434mWCRSleemanabad, Madhya Pradesh
36DDCEDundi (2)X  04:54+4604:55+511m--2-53.369415mWCRDundi, Madhya Pradesh
37SHRSihora Road (2)X  05:08+4905:10+512m--2-38.461388mWCRJabalpur, Madhya Pradesh
38GSPRGosalpur (2)X  05:21+5005:22+521m--2-27.339396mWCRJabalpur, Madhya Pradesh
39DOEDeori (2)X  05:38+4705:39+471m--2-16.841392mWCRJabalpur, Madhya Pradesh
40ADTLAdhartal (2)  05:52+4505:53+531m--2-8.028393mWCRJabalpur, Madhya Pradesh
41JBP»Jabalpur Junction (7)»X  06:10+5506:20+5910m120.035416mWCRJabalpur, Madhya Pradesh
42MMLMadan Mahal (3)X  06:26+5606:30+554m123.579428mWCRJabalpur, Madhya Pradesh
43BRGTBheraghat (2)  06:40+5806:41+1:001m--216.672389mWCRBheraghat, Madhya Pradesh
44BHTNBhitoni (2)  06:52+1:0106:53+1:041m--229.863377mWCRJabalpur, Madhya Pradesh
45BMRBikrampur (2)O  07:04+1:0507:05+1:071m--241.431353mWCRBikrampur Dist Narsingpur., Madhya Pradesh
46SRIDShridham (3)XO  07:28+1:0907:30+1:102m3253.261373mWCRShridham, Madhya Pradesh
47KKBKarak Bel (2)  07:45+5907:46+1:001m--268.533375mWCRKarak Bel, Madhya Pradesh
48BELDBelkhera (2)  07:54+5907:55+1:021m--272.930367mWCRState Highway 22, Madhya Pradesh
49GPCGhatpindrai (2)XO  08:06+1:0208:07+1:151m--278.45366mWCRGhatpindra, Madhya Pradesh
50NUNarsinghpur (2)  09:23+3509:25+402m2284.270365mWCRNarsimhapur, Madhya Pradesh
51KYKareli (2)  09:39+3709:40+411m22100.650361mWCRKareli, Madhya Pradesh
52KFYKarapgaon (2)  09:50+3709:52+372m--2108.958364mWCRNational Highway 26, Madhya Pradesh
53BNEBohani (2)  09:59+3910:00+461m--2115.760361mWCRNarsinghpur, Madhya Pradesh
54GARGadarwara (2)X  10:13+5110:14+571m22128.670352mWCRNarsinghpur, Madhya Pradesh
55SCKRSalichauka Road (2)X  10:26+5010:27+1:031m--2142.568355mWCRGadarwara, Madhya Pradesh
56JHTJunehta (2)X  10:36+1:0310:38+1:032m--2152.648353mWCRState Highway 22, Madhya Pradesh
57BKHBankhedi (2)XO  10:46+1:0310:47+1:071m--2159.020351mWCRBankheri, Madhya Pradesh
58PPIPipariya (3)X  11:45+4511:50+535m32178.052338mWCRPiparia, Madhya Pradesh
59SXFSobhapur (2)  12:00+4512:02+452m--2186.639338mWCRState Highway 22, Madhya Pradesh
60SGPSohagpur (2)X  12:16+4412:17+471m--2195.750340mWCRSohagpur, Madhya Pradesh
61GMDGuramkhedi (2)  12:29+4512:30+521m--2205.727337mWCRSohagpur, Madhya Pradesh
62BGTABagra Tawa (2)X  12:59+4213:00+1:041m--2218.827338mWCRBagra Tawa, Madhya Pradesh
63SQLSontalai (2)XO  13:15+1:0113:17+1:232m--2225.611329mWCRItarsi, Madhya Pradesh
64GROGurra (2)  14:05+5114:07+1:002m--2234.68327mWCRItarsi, Madhya Pradesh
65ET•Itarsi Junction (7)•  15:30+25---2245.2-329mWCRItarsi 461111, Madhya Pradesh
Scroll to Top
Scroll to Bottom